Time;durP1;ratioP1;P1;durP2;ratioP2;P2;SDS_P1;SDS_P2;PMS_P1;PMS_P2;Temp;Humidity;BMP_temperature;BMP_pressure;BME280_temperature;BME280_humidity;BME280_pressure;Samples;Min_cycle;Max_cycle;Signal;HPM_P1;HPM_P2
2022/03/30 00:00:25;;;;;;;28.00;16.33;;;;;;;;;;5089621;28;20036;-77
2022/03/30 00:02:51;;;;;;;29.45;17.55;;;;;;;;;;5087760;28;20036;-79
2022/03/30 00:05:16;;;;;;;30.05;17.92;;;;;;;;;;5099752;28;20682;-76
2022/03/30 00:07:42;;;;;;;47.00;26.13;;;;;;;;;;5098400;28;20039;-75
2022/03/30 00:10:07;;;;;;;29.85;17.13;;;;;;;;;;5090376;28;20050;-75
2022/03/30 00:12:34;;;;;;;33.90;19.27;;;;;;;;;;5099650;28;20778;-76
2022/03/30 00:14:59;;;;;;;29.17;14.98;;;;;;;;;;5100619;28;20027;-75
2022/03/30 00:17:24;;;;;;;42.53;25.77;;;;;;;;;;5093330;28;20113;-76
2022/03/30 00:19:50;;;;;;;38.90;21.40;;;;;;;;;;5093533;28;20028;-76
2022/03/30 00:22:15;;;;;;;40.95;22.80;;;;;;;;;;5087832;28;20031;-75
2022/03/30 00:24:43;;;;;;;31.60;20.80;;;;;;;;;;5095059;28;20095;-74
2022/03/30 00:27:09;;;;;;;32.25;19.10;;;;;;;;;;5090675;28;20032;-76
2022/03/30 00:29:34;;;;;;;35.78;20.67;;;;;;;;;;5087922;28;20047;-77
2022/03/30 00:32:00;;;;;;;44.85;26.80;;;;;;;;;;5094861;28;20605;-77
2022/03/30 00:34:25;;;;;;;40.95;24.52;;;;;;;;;;5100755;28;20769;-76
2022/03/30 00:36:51;;;;;;;46.67;27.27;;;;;;;;;;5088310;28;20028;-76
2022/03/30 00:39:19;;;;;;;35.03;19.70;;;;;;;;;;5088779;28;20114;-76
2022/03/30 00:41:45;;;;;;;47.50;25.00;;;;;;;;;;5093600;28;20032;-75
2022/03/30 00:44:11;;;;;;;47.70;28.05;;;;;;;;;;5083874;28;20112;-76
2022/03/30 00:46:37;;;;;;;51.20;27.33;;;;;;;;;;5097531;28;20039;-77
2022/03/30 00:49:04;;;;;;;48.70;25.30;;;;;;;;;;5098693;28;20042;-76
2022/03/30 00:51:29;;;;;;;37.63;20.45;;;;;;;;;;5099205;28;20339;-77
2022/03/30 00:53:55;;;;;;;35.40;19.40;;;;;;;;;;5099658;28;20053;-77
2022/03/30 00:56:20;;;;;;;34.53;20.35;;;;;;;;;;5099750;28;20036;-75
2022/03/30 00:58:45;;;;;;;37.75;23.20;;;;;;;;;;5098915;28;20036;-76
2022/03/30 01:01:11;;;;;;;34.60;19.48;;;;;;;;;;5091915;28;20066;-76
2022/03/30 01:03:37;;;;;;;39.30;23.30;;;;;;;;;;5092522;28;20032;-75
2022/03/30 01:06:02;;;;;;;31.42;19.52;;;;;;;;;;5097565;28;20031;-78
2022/03/30 01:08:28;;;;;;;32.15;18.52;;;;;;;;;;5099247;28;20085;-79
2022/03/30 01:10:53;;;;;;;29.40;16.67;;;;;;;;;;5098590;28;20031;-78
2022/03/30 01:13:19;;;;;;;26.83;15.32;;;;;;;;;;5097768;28;20020;-76
2022/03/30 01:15:45;;;;;;;23.92;14.27;;;;;;;;;;5098715;28;20365;-77
2022/03/30 01:18:10;;;;;;;33.15;13.27;;;;;;;;;;5097931;28;20038;-77
2022/03/30 01:20:35;;;;;;;24.50;12.80;;;;;;;;;;5087527;28;21229;-75
2022/03/30 01:23:01;;;;;;;20.10;11.25;;;;;;;;;;5087028;28;20042;-78
2022/03/30 01:25:26;;;;;;;26.20;13.43;;;;;;;;;;5109398;27;20510;-77
2022/03/30 01:27:52;;;;;;;23.85;13.45;;;;;;;;;;5096748;27;20032;-77
2022/03/30 01:33:03;;;;;;;28.90;15.10;;;;;;;;;;5095961;28;20062;-76
2022/03/30 01:35:29;;;;;;;26.60;13.23;;;;;;;;;;5099354;28;20028;-77
2022/03/30 01:37:55;;;;;;;25.75;13.75;;;;;;;;;;5097169;28;20023;-77
2022/03/30 01:40:20;;;;;;;24.90;12.88;;;;;;;;;;5084755;28;20439;-77
2022/03/30 01:42:46;;;;;;;27.25;13.15;;;;;;;;;;5099058;28;20064;-77
2022/03/30 01:45:15;;;;;;;30.35;13.30;;;;;;;;;;5097483;28;20027;-78
2022/03/30 01:47:40;;;;;;;27.75;13.80;;;;;;;;;;5095684;28;20521;-78
2022/03/30 01:50:08;;;;;;;32.63;16.90;;;;;;;;;;5096639;28;20439;-78
2022/03/30 01:52:34;;;;;;;34.35;19.02;;;;;;;;;;5095543;28;20027;-75
2022/03/30 01:54:59;;;;;;;29.05;15.57;;;;;;;;;;5095086;28;20281;-77
2022/03/30 01:57:24;;;;;;;30.05;19.08;;;;;;;;;;5098672;28;20039;-76
2022/03/30 01:59:50;;;;;;;29.42;17.48;;;;;;;;;;5090292;28;20511;-76
2022/03/30 02:02:15;;;;;;;23.85;14.95;;;;;;;;;;5093974;27;20058;-76
2022/03/30 02:04:41;;;;;;;28.17;15.60;;;;;;;;;;5098826;28;20070;-78
2022/03/30 02:07:09;;;;;;;29.25;15.82;;;;;;;;;;5097267;28;20035;-77
2022/03/30 02:09:34;;;;;;;25.98;15.75;;;;;;;;;;5097351;28;20495;-76
2022/03/30 02:11:59;;;;;;;21.00;13.65;;;;;;;;;;5084948;28;20102;-78
2022/03/30 02:14:25;;;;;;;19.33;12.75;;;;;;;;;;5097738;28;20015;-76
2022/03/30 02:16:51;;;;;;;29.73;13.77;;;;;;;;;;5095750;28;20465;-76
2022/03/30 02:19:16;;;;;;;23.92;13.77;;;;;;;;;;5092303;28;20039;-77
2022/03/30 02:21:41;;;;;;;21.70;14.23;;;;;;;;;;5083091;28;20081;-77
2022/03/30 02:24:07;;;;;;;23.63;13.30;;;;;;;;;;5092678;28;20435;-76
2022/03/30 02:26:32;;;;;;;23.88;13.20;;;;;;;;;;5096665;28;20587;-76
2022/03/30 02:28:58;;;;;;;24.42;14.15;;;;;;;;;;5093984;28;20435;-77
2022/03/30 02:31:23;;;;;;;30.17;17.98;;;;;;;;;;5095999;28;20034;-75
2022/03/30 02:33:48;;;;;;;35.25;17.65;;;;;;;;;;5096540;28;20111;-76
2022/03/30 02:36:14;;;;;;;26.52;15.95;;;;;;;;;;5096151;28;20439;-78
2022/03/30 02:38:40;;;;;;;24.98;14.95;;;;;;;;;;5096345;28;20049;-75
2022/03/30 02:41:06;;;;;;;28.00;15.00;;;;;;;;;;5086002;28;20023;-78
2022/03/30 02:43:32;;;;;;;21.77;14.40;;;;;;;;;;5082669;28;20028;-77
2022/03/30 02:45:57;;;;;;;25.13;13.75;;;;;;;;;;5084008;28;20658;-75
2022/03/30 02:48:28;;;;;;;25.85;15.82;;;;;;;;;;5081732;28;20032;-77
2022/03/30 02:50:55;;;;;;;24.23;15.38;;;;;;;;;;5078520;28;20432;-75
2022/03/30 02:53:21;;;;;;;28.42;16.80;;;;;;;;;;5082548;28;20111;-77
2022/03/30 02:55:46;;;;;;;32.08;17.00;;;;;;;;;;5082347;28;20122;-76
2022/03/30 02:58:12;;;;;;;27.92;14.85;;;;;;;;;;5081523;28;20027;-76
2022/03/30 03:00:38;;;;;;;22.23;13.32;;;;;;;;;;5082677;28;20026;-77
2022/03/30 03:03:04;;;;;;;36.55;19.27;;;;;;;;;;5081345;28;20495;-77
2022/03/30 03:05:32;;;;;;;29.55;15.80;;;;;;;;;;5081582;28;20031;-75
2022/03/30 03:08:01;;;;;;;28.77;16.13;;;;;;;;;;5084764;28;20024;-77
2022/03/30 03:10:26;;;;;;;25.80;13.20;;;;;;;;;;5097527;28;20032;-77
2022/03/30 03:12:53;;;;;;;43.25;20.88;;;;;;;;;;5095961;28;20101;-77
2022/03/30 03:15:18;;;;;;;35.30;17.65;;;;;;;;;;5096552;28;20028;-78
2022/03/30 03:17:43;;;;;;;24.92;13.30;;;;;;;;;;5097416;28;20474;-74
2022/03/30 03:20:10;;;;;;;28.40;13.63;;;;;;;;;;5093883;28;20028;-76
2022/03/30 03:22:35;;;;;;;26.15;12.50;;;;;;;;;;5082847;28;20020;-76
2022/03/30 03:25:01;;;;;;;24.05;13.55;;;;;;;;;;5100597;28;20036;-74
2022/03/30 03:27:28;;;;;;;23.45;14.30;;;;;;;;;;5096109;28;20111;-76
2022/03/30 03:29:54;;;;;;;32.00;15.43;;;;;;;;;;5094997;28;20031;-76
2022/03/30 03:32:19;;;;;;;28.42;14.32;;;;;;;;;;5096728;28;20101;-76
2022/03/30 03:34:44;;;;;;;31.63;15.88;;;;;;;;;;5094898;28;20020;-76
2022/03/30 03:37:11;;;;;;;26.70;14.07;;;;;;;;;;5095888;28;20031;-76
2022/03/30 03:39:36;;;;;;;37.22;22.00;;;;;;;;;;5092988;28;20097;-74
2022/03/30 03:42:01;;;;;;;49.97;29.02;;;;;;;;;;5081957;28;20439;-76
2022/03/30 03:44:27;;;;;;;34.28;21.95;;;;;;;;;;5093639;28;20032;-76
2022/03/30 03:46:54;;;;;;;43.20;22.80;;;;;;;;;;5094235;28;20032;-77
2022/03/30 03:49:20;;;;;;;34.10;20.38;;;;;;;;;;5093526;28;20154;-77
2022/03/30 03:51:45;;;;;;;31.25;18.85;;;;;;;;;;5084221;28;20996;-74
2022/03/30 03:54:11;;;;;;;34.40;17.27;;;;;;;;;;5083124;28;20036;-75
2022/03/30 03:56:36;;;;;;;30.80;15.27;;;;;;;;;;5086330;28;20031;-76
2022/03/30 03:59:02;;;;;;;32.72;15.77;;;;;;;;;;5086275;28;20110;-76
2022/03/30 04:01:28;;;;;;;24.75;13.40;;;;;;;;;;5084910;28;20458;-76
2022/03/30 04:03:54;;;;;;;27.02;11.45;;;;;;;;;;5084265;28;20020;-75
2022/03/30 04:06:19;;;;;;;30.38;13.02;;;;;;;;;;5098166;28;20051;-74
2022/03/30 04:08:44;;;;;;;31.65;13.95;;;;;;;;;;5088577;28;20028;-77
2022/03/30 04:11:10;;;;;;;27.60;11.80;;;;;;;;;;5098976;28;20043;-74
2022/03/30 04:13:36;;;;;;;23.50;11.88;;;;;;;;;;5089657;28;20031;-76
2022/03/30 04:16:01;;;;;;;24.33;12.85;;;;;;;;;;5100166;27;20034;-76
2022/03/30 04:18:27;;;;;;;29.55;13.50;;;;;;;;;;5101908;27;20032;-75
2022/03/30 04:20:52;;;;;;;25.65;13.27;;;;;;;;;;5086365;28;20024;-77
2022/03/30 04:23:17;;;;;;;34.22;13.25;;;;;;;;;;5093407;28;20072;-76
2022/03/30 04:25:43;;;;;;;24.85;11.60;;;;;;;;;;5085319;28;20043;-73
2022/03/30 04:28:08;;;;;;;18.10;10.65;;;;;;;;;;5084896;28;20424;-76
2022/03/30 04:30:34;;;;;;;25.63;10.98;;;;;;;;;;5084081;28;20076;-77
2022/03/30 04:32:59;;;;;;;23.85;10.55;;;;;;;;;;5096465;28;20049;-76
2022/03/30 04:35:25;;;;;;;21.27;9.65;;;;;;;;;;5088217;28;20032;-76
2022/03/30 04:37:54;;;;;;;21.05;11.18;;;;;;;;;;5089006;28;20034;-76
2022/03/30 04:40:20;;;;;;;30.50;16.00;;;;;;;;;;5089173;28;20020;-80
2022/03/30 04:42:45;;;;;;;26.27;11.88;;;;;;;;;;5094545;28;20034;-77
2022/03/30 04:45:10;;;;;;;23.17;10.73;;;;;;;;;;5090432;28;20156;-74
2022/03/30 04:47:36;;;;;;;23.50;10.90;;;;;;;;;;5084072;28;20650;-74
2022/03/30 04:50:02;;;;;;;18.65;10.52;;;;;;;;;;5098814;27;20043;-75
2022/03/30 04:52:27;;;;;;;19.20;11.45;;;;;;;;;;5097224;28;20027;-77
2022/03/30 04:54:53;;;;;;;23.63;11.98;;;;;;;;;;5099997;28;20038;-76
2022/03/30 04:57:18;;;;;;;27.40;12.13;;;;;;;;;;5099444;28;20423;-75
2022/03/30 04:59:44;;;;;;;22.45;11.93;;;;;;;;;;5094395;28;20015;-74
2022/03/30 05:02:09;;;;;;;27.55;12.23;;;;;;;;;;5084669;27;20019;-76
2022/03/30 05:04:34;;;;;;;20.90;12.10;;;;;;;;;;5083757;28;20027;-74
2022/03/30 05:07:00;;;;;;;25.83;11.45;;;;;;;;;;5097943;27;20040;-76
2022/03/30 05:09:25;;;;;;;24.35;10.32;;;;;;;;;;5094121;28;20451;-77
2022/03/30 05:11:51;;;;;;;22.88;10.48;;;;;;;;;;5095399;28;20027;-73
2022/03/30 05:14:17;;;;;;;24.83;10.50;;;;;;;;;;5091002;28;20108;-78
2022/03/30 05:16:42;;;;;;;21.98;11.05;;;;;;;;;;5082005;28;20438;-76
2022/03/30 05:19:08;;;;;;;22.25;11.18;;;;;;;;;;5079977;28;20028;-75
2022/03/30 05:21:34;;;;;;;26.45;11.77;;;;;;;;;;5080089;28;20038;-78
2022/03/30 05:23:59;;;;;;;29.20;15.90;;;;;;;;;;5091387;28;20028;-75
2022/03/30 05:26:24;;;;;;;41.13;20.45;;;;;;;;;;5095688;28;20036;-78
2022/03/30 05:28:50;;;;;;;30.33;16.85;;;;;;;;;;5096534;28;20112;-70
2022/03/30 05:31:15;;;;;;;27.33;13.75;;;;;;;;;;5092308;28;20141;-70
2022/03/30 05:33:40;;;;;;;21.17;11.07;;;;;;;;;;5090382;28;20032;-77
2022/03/30 05:36:07;;;;;;;23.33;11.02;;;;;;;;;;5093642;28;20041;-77
2022/03/30 05:38:32;;;;;;;19.33;9.68;;;;;;;;;;5098706;28;20031;-76
2022/03/30 05:40:58;;;;;;;22.48;8.98;;;;;;;;;;5097106;28;20019;-77
2022/03/30 05:43:25;;;;;;;35.35;18.15;;;;;;;;;;5097359;28;20472;-77
2022/03/30 05:45:50;;;;;;;29.88;16.52;;;;;;;;;;5096151;28;20039;-80
2022/03/30 05:48:17;;;;;;;46.17;24.13;;;;;;;;;;5097238;28;20405;-75
2022/03/30 05:50:43;;;;;;;24.80;12.95;;;;;;;;;;5103438;27;20117;-75
2022/03/30 05:53:08;;;;;;;20.05;9.82;;;;;;;;;;5079706;28;20030;-72
2022/03/30 05:55:33;;;;;;;21.63;8.93;;;;;;;;;;5082454;28;20106;-72
2022/03/30 05:57:59;;;;;;;23.90;10.07;;;;;;;;;;5081364;28;20035;-72
2022/03/30 06:00:24;;;;;;;25.33;11.57;;;;;;;;;;5076846;28;20145;-73
2022/03/30 06:02:50;;;;;;;28.23;12.65;;;;;;;;;;5077722;27;20027;-76
2022/03/30 06:05:15;;;;;;;29.83;15.40;;;;;;;;;;5080045;28;20562;-74
2022/03/30 06:07:41;;;;;;;34.22;15.00;;;;;;;;;;5080603;28;20032;-77
2022/03/30 06:10:07;;;;;;;31.45;16.77;;;;;;;;;;5079194;28;20027;-73
2022/03/30 06:12:32;;;;;;;35.05;19.05;;;;;;;;;;5077064;28;20435;-75
2022/03/30 06:14:58;;;;;;;33.75;17.23;;;;;;;;;;5077332;28;20036;-77
2022/03/30 06:17:23;;;;;;;37.85;19.88;;;;;;;;;;5080143;27;20340;-77
2022/03/30 06:19:50;;;;;;;28.35;15.23;;;;;;;;;;5088351;28;20031;-77
2022/03/30 06:22:15;;;;;;;33.30;16.27;;;;;;;;;;5079444;28;20149;-74
2022/03/30 06:24:41;;;;;;;27.05;14.07;;;;;;;;;;5087049;27;20068;-77
2022/03/30 06:27:07;;;;;;;36.47;21.35;;;;;;;;;;5069818;28;20091;-74
2022/03/30 06:29:33;;;;;;;39.72;21.42;;;;;;;;;;5056325;28;20763;-79
2022/03/30 06:31:59;;;;;;;29.85;15.35;;;;;;;;;;5064214;28;20032;-76
2022/03/30 06:34:24;;;;;;;26.80;14.52;;;;;;;;;;5065423;28;20028;-74
2022/03/30 06:36:49;;;;;;;34.63;14.25;;;;;;;;;;5065203;28;20603;-75
2022/03/30 06:39:15;;;;;;;53.90;31.85;;;;;;;;;;5075959;28;20051;-78
2022/03/30 06:41:42;;;;;;;48.33;23.58;;;;;;;;;;5076032;28;20115;-74
2022/03/30 06:44:08;;;;;;;37.05;17.58;;;;;;;;;;5074172;28;20358;-73
2022/03/30 06:46:37;;;;;;;32.95;17.08;;;;;;;;;;5075702;28;20053;-73
2022/03/30 06:49:03;;;;;;;;;;;;;;;;;;5075575;28;20047;-73
2022/03/30 06:51:28;;;;;;;35.03;17.90;;;;;;;;;;5072747;28;19947;-71
2022/03/30 06:53:53;;;;;;;38.35;18.00;;;;;;;;;;5071544;28;20057;-74
2022/03/30 06:56:19;;;;;;;30.33;16.92;;;;;;;;;;5074787;28;20020;-71
2022/03/30 06:58:44;;;;;;;25.40;13.10;;;;;;;;;;5067949;28;20353;-78
2022/03/30 07:01:12;;;;;;;32.67;14.50;;;;;;;;;;5061851;28;20073;-75
2022/03/30 07:03:39;;;;;;;29.55;14.35;;;;;;;;;;5063932;28;20325;-71
2022/03/30 07:06:05;;;;;;;30.70;13.10;;;;;;;;;;5074433;28;20032;-73
2022/03/30 07:11:14;;;;;;;22.67;8.57;;;;;;;;;;5074000;28;20031;-73
2022/03/30 07:13:39;;;;;;;24.42;9.30;;;;;;;;;;5074964;28;20020;-74
2022/03/30 07:16:04;;;;;;;22.30;7.78;;;;;;;;;;5064213;28;20032;-76
2022/03/30 07:18:30;;;;;;;19.77;6.60;;;;;;;;;;5072886;28;20028;-74
2022/03/30 07:20:56;;;;;;;18.83;6.07;;;;;;;;;;5077570;28;20032;-75
2022/03/30 07:23:23;;;;;;;24.15;5.63;;;;;;;;;;5079358;28;20427;-73
2022/03/30 07:25:49;;;;;;;24.27;9.75;;;;;;;;;;5065918;28;20029;-74
2022/03/30 07:28:16;;;;;;;14.43;5.20;;;;;;;;;;5070775;28;20088;-78
2022/03/30 07:30:43;;;;;;;17.42;4.72;;;;;;;;;;5083836;28;20090;-75
2022/03/30 07:33:08;;;;;;;19.05;5.30;;;;;;;;;;5083883;28;20031;-75
2022/03/30 07:35:34;;;;;;;18.65;6.45;;;;;;;;;;5070784;28;20028;-73
2022/03/30 07:38:00;;;;;;;16.88;4.78;;;;;;;;;;5076571;28;20078;-76
2022/03/30 07:40:25;;;;;;;19.95;5.63;;;;;;;;;;5081871;28;20069;-77
2022/03/30 07:42:51;;;;;;;14.30;5.50;;;;;;;;;;5079333;28;20085;-74
2022/03/30 07:45:17;;;;;;;23.55;7.78;;;;;;;;;;5081388;28;20032;-76
2022/03/30 07:47:42;;;;;;;19.70;6.20;;;;;;;;;;5081582;28;20027;-75
2022/03/30 07:50:09;;;;;;;19.67;5.10;;;;;;;;;;5066267;28;20143;-77
2022/03/30 07:52:34;;;;;;;15.07;5.80;;;;;;;;;;5070023;28;20020;-74
2022/03/30 07:55:00;;;;;;;16.65;5.30;;;;;;;;;;5079951;28;20344;-75
2022/03/30 07:57:26;;;;;;;20.67;4.70;;;;;;;;;;5080248;28;20028;-76
2022/03/30 07:59:52;;;;;;;18.65;4.82;;;;;;;;;;5065267;28;20032;-77
2022/03/30 08:02:18;;;;;;;17.90;4.82;;;;;;;;;;5079673;28;20032;-78
2022/03/30 08:04:44;;;;;;;20.45;4.90;;;;;;;;;;5079409;28;20050;-76
2022/03/30 08:07:09;;;;;;;18.02;6.60;;;;;;;;;;5065239;28;20046;-81
2022/03/30 08:09:34;;;;;;;25.33;6.63;;;;;;;;;;5073862;28;20031;-77
2022/03/30 08:12:00;;;;;;;14.77;5.28;;;;;;;;;;5066020;28;20028;-77
2022/03/30 08:14:25;;;;;;;20.42;6.15;;;;;;;;;;5080635;28;20066;-77
2022/03/30 08:16:51;;;;;;;16.50;4.85;;;;;;;;;;5078955;28;20359;-77
2022/03/30 08:19:16;;;;;;;22.23;5.88;;;;;;;;;;5075453;28;20091;-77
2022/03/30 08:24:25;;;;;;;20.20;7.18;;;;;;;;;;5061018;28;20470;-75
2022/03/30 08:26:51;;;;;;;14.10;5.30;;;;;;;;;;5065150;28;20044;-75
2022/03/30 08:29:16;;;;;;;17.40;5.53;;;;;;;;;;5065968;28;20025;-75
2022/03/30 08:31:42;;;;;;;20.33;6.55;;;;;;;;;;5062727;28;20028;-76
2022/03/30 08:34:07;;;;;;;28.90;11.52;;;;;;;;;;5063841;28;20027;-75
2022/03/30 08:36:33;;;;;;;16.05;5.95;;;;;;;;;;5062051;28;20114;-75
2022/03/30 08:38:59;;;;;;;17.70;5.63;;;;;;;;;;5064373;28;20031;-78
2022/03/30 08:41:25;;;;;;;23.02;7.93;;;;;;;;;;5072213;28;20035;-75
2022/03/30 08:43:50;;;;;;;20.13;6.30;;;;;;;;;;5069173;28;20780;-76
2022/03/30 08:46:15;;;;;;;32.63;18.02;;;;;;;;;;5068565;28;20028;-76
2022/03/30 08:48:41;;;;;;;25.52;10.40;;;;;;;;;;5066783;28;20032;-77
2022/03/30 08:51:07;;;;;;;21.02;6.47;;;;;;;;;;5079805;28;20055;-76
2022/03/30 08:53:32;;;;;;;19.60;9.65;;;;;;;;;;5079662;28;20078;-76
2022/03/30 08:55:57;;;;;;;17.30;7.50;;;;;;;;;;5078776;28;20103;-75
2022/03/30 08:58:23;;;;;;;18.77;8.27;;;;;;;;;;5081508;28;20032;-75
2022/03/30 09:00:50;;;;;;;21.88;12.98;;;;;;;;;;5081010;28;20423;-75
2022/03/30 09:03:17;;;;;;;33.63;14.65;;;;;;;;;;5079422;28;20089;-77
2022/03/30 09:05:43;;;;;;;23.83;15.93;;;;;;;;;;5080122;28;20028;-75
2022/03/30 09:08:08;;;;;;;18.73;7.20;;;;;;;;;;5080388;28;20043;-77
2022/03/30 09:10:35;;;;;;;21.25;5.65;;;;;;;;;;5079726;28;20024;-77
2022/03/30 09:13:01;;;;;;;23.15;12.25;;;;;;;;;;5077793;28;20020;-78
2022/03/30 09:15:26;;;;;;;21.70;7.25;;;;;;;;;;5080264;28;20091;-76
2022/03/30 09:17:59;;;;;;;20.50;6.78;;;;;;;;;;5078579;28;20475;-79
2022/03/30 09:20:25;;;;;;;21.15;6.13;;;;;;;;;;5079776;28;20021;-77
2022/03/30 09:22:52;;;;;;;17.23;5.43;;;;;;;;;;5079052;28;20092;-77
2022/03/30 09:25:17;;;;;;;24.25;7.28;;;;;;;;;;5080017;28;20033;-77
2022/03/30 09:27:45;;;;;;;25.15;6.95;;;;;;;;;;5062221;28;20045;-77
2022/03/30 09:30:14;;;;;;;16.65;5.78;;;;;;;;;;5062833;28;20039;-76
2022/03/30 09:32:41;;;;;;;19.45;5.32;;;;;;;;;;5062618;28;20028;-75
2022/03/30 09:35:17;;;;;;;19.80;5.00;;;;;;;;;;5062346;28;20038;-75
2022/03/30 09:37:42;;;;;;;20.50;5.97;;;;;;;;;;5062372;28;20031;-76
2022/03/30 09:40:11;;;;;;;14.90;5.13;;;;;;;;;;5059763;28;20183;-75
2022/03/30 09:42:36;;;;;;;16.40;5.35;;;;;;;;;;5060872;28;20028;-75
2022/03/30 09:45:02;;;;;;;18.83;5.47;;;;;;;;;;5062090;28;20081;-74
2022/03/30 09:47:35;;;;;;;20.80;5.68;;;;;;;;;;5060515;28;20020;-75
2022/03/30 09:50:01;;;;;;;18.38;6.05;;;;;;;;;;5059836;28;20052;-74
2022/03/30 09:52:27;;;;;;;19.15;5.60;;;;;;;;;;5059713;28;20051;-77
2022/03/30 09:54:54;;;;;;;13.02;4.93;;;;;;;;;;5061039;28;20028;-76
2022/03/30 09:57:25;;;;;;;17.85;4.63;;;;;;;;;;5062548;28;20047;-75
2022/03/30 10:00:00;;;;;;;18.08;6.38;;;;;;;;;;5062863;28;20476;-75
2022/03/30 10:02:26;;;;;;;19.90;7.40;;;;;;;;;;5060668;28;20036;-74
2022/03/30 10:04:51;;;;;;;28.60;7.32;;;;;;;;;;5060932;28;20062;-75
2022/03/30 10:07:17;;;;;;;19.42;6.63;;;;;;;;;;5061917;28;20115;-75
2022/03/30 10:09:42;;;;;;;15.80;4.70;;;;;;;;;;5062004;28;20020;-74
2022/03/30 10:12:08;;;;;;;32.60;6.70;;;;;;;;;;5059517;28;20028;-75
2022/03/30 10:14:36;;;;;;;22.85;4.82;;;;;;;;;;5061645;28;20032;-74
2022/03/30 10:17:01;;;;;;;15.68;5.57;;;;;;;;;;5061938;28;20539;-75
2022/03/30 10:19:28;;;;;;;20.70;8.48;;;;;;;;;;5061125;28;20098;-75
2022/03/30 10:21:59;;;;;;;11.95;5.15;;;;;;;;;;5057538;28;20073;-76
2022/03/30 10:24:36;;;;;;;21.73;5.78;;;;;;;;;;5062162;28;20027;-76
2022/03/30 10:27:11;;;;;;;13.57;5.20;;;;;;;;;;5059148;28;20040;-74
2022/03/30 10:29:37;;;;;;;15.35;4.82;;;;;;;;;;5071693;28;20124;-76
2022/03/30 10:32:08;;;;;;;22.35;5.35;;;;;;;;;;5078244;28;20051;-76
2022/03/30 10:34:39;;;;;;;14.38;5.18;;;;;;;;;;5079366;28;20363;-78
2022/03/30 10:37:09;;;;;;;16.80;5.00;;;;;;;;;;5078220;28;20033;-77
2022/03/30 10:39:35;;;;;;;20.92;6.65;;;;;;;;;;5076277;28;20024;-77
2022/03/30 10:42:03;;;;;;;20.25;4.97;;;;;;;;;;5069950;28;20027;-78
2022/03/30 10:44:38;;;;;;;18.52;5.82;;;;;;;;;;5075170;28;20046;-74
2022/03/30 10:47:07;;;;;;;14.38;5.10;;;;;;;;;;5072764;28;20109;-75
2022/03/30 10:49:42;;;;;;;15.68;5.00;;;;;;;;;;5061903;28;20136;-77
2022/03/30 10:52:26;;;;;;;12.98;4.97;;;;;;;;;;5066873;28;20027;-75
2022/03/30 10:54:55;;;;;;;22.08;6.15;;;;;;;;;;5076867;28;20024;-75
2022/03/30 10:57:20;;;;;;;;;;;;;;;;;;5074679;28;20380;-77
2022/03/30 11:00:04;;;;;;;14.67;4.97;;;;;;;;;;5078287;28;19958;-75
2022/03/30 11:02:39;;;;;;;18.38;5.03;;;;;;;;;;5076054;28;20092;-77
2022/03/30 11:05:12;;;;;;;16.45;5.28;;;;;;;;;;5079868;28;20031;-75
2022/03/30 11:07:38;;;;;;;18.73;4.90;;;;;;;;;;5081213;28;20059;-74
2022/03/30 11:10:12;;;;;;;13.43;4.88;;;;;;;;;;5082384;28;20594;-75
2022/03/30 11:13:16;;;;;;;14.50;5.00;;;;;;;;;;5079517;28;20027;-74
2022/03/30 11:15:57;;;;;;;16.50;5.22;;;;;;;;;;5083988;28;20065;-76
2022/03/30 11:18:22;;;;;;;20.42;6.22;;;;;;;;;;5094512;28;20466;-75
2022/03/30 11:21:06;;;;;;;16.45;6.18;;;;;;;;;;5089184;28;20069;-77
2022/03/30 11:23:31;;;;;;;13.02;5.10;;;;;;;;;;5074626;28;20020;-75
2022/03/30 11:25:57;;;;;;;14.50;5.32;;;;;;;;;;5082927;28;20159;-74
2022/03/30 11:28:35;;;;;;;16.73;4.93;;;;;;;;;;5082951;28;20036;-74
2022/03/30 11:31:03;;;;;;;16.30;4.70;;;;;;;;;;5081748;28;20028;-75
2022/03/30 11:33:32;;;;;;;22.58;6.10;;;;;;;;;;5081929;28;20008;-77
2022/03/30 11:35:57;;;;;;;19.60;6.43;;;;;;;;;;5082608;28;20023;-75
2022/03/30 11:38:25;;;;;;;14.00;5.13;;;;;;;;;;5077600;28;20107;-75
2022/03/30 11:41:05;;;;;;;15.02;5.32;;;;;;;;;;5079923;28;20055;-74
2022/03/30 11:43:33;;;;;;;19.02;5.93;;;;;;;;;;5081912;28;20115;-74
2022/03/30 11:45:59;;;;;;;18.85;4.88;;;;;;;;;;5082022;28;20094;-74
2022/03/30 11:48:25;;;;;;;15.13;4.93;;;;;;;;;;5082116;28;20024;-74
2022/03/30 11:50:54;;;;;;;15.70;5.10;;;;;;;;;;5079303;28;20085;-75
2022/03/30 11:53:20;;;;;;;16.08;5.68;;;;;;;;;;5082370;28;20100;-75
2022/03/30 11:55:51;;;;;;;13.35;5.45;;;;;;;;;;5082248;28;20450;-76
2022/03/30 11:58:23;;;;;;;13.70;4.50;;;;;;;;;;5079410;28;20028;-74
2022/03/30 12:00:49;;;;;;;18.63;5.10;;;;;;;;;;5080571;28;20021;-75
2022/03/30 12:03:14;;;;;;;12.05;6.18;;;;;;;;;;5079931;28;20031;-74
2022/03/30 12:05:39;;;;;;;17.17;6.40;;;;;;;;;;5078550;28;20431;-78
2022/03/30 12:08:05;;;;;;;20.75;5.57;;;;;;;;;;5081197;28;20032;-75
2022/03/30 12:10:31;;;;;;;19.08;10.02;;;;;;;;;;5080486;28;20024;-77
2022/03/30 12:12:57;;;;;;;24.05;8.15;;;;;;;;;;5081256;28;20086;-77
2022/03/30 12:15:23;;;;;;;15.55;6.43;;;;;;;;;;5078836;28;20037;-76
2022/03/30 12:17:53;;;;;;;12.20;4.97;;;;;;;;;;5081209;28;20035;-76
2022/03/30 12:20:36;;;;;;;23.58;9.63;;;;;;;;;;5079118;28;20435;-76
2022/03/30 12:23:02;;;;;;;17.92;5.53;;;;;;;;;;5081605;28;20109;-76
2022/03/30 12:25:32;;;;;;;14.00;4.78;;;;;;;;;;5079490;28;20044;-78
2022/03/30 12:27:57;;;;;;;14.73;6.13;;;;;;;;;;5080442;28;20073;-76
2022/03/30 12:30:23;;;;;;;14.98;4.97;;;;;;;;;;5081897;28;20028;-77
2022/03/30 12:32:49;;;;;;;18.60;5.60;;;;;;;;;;5082594;28;20031;-78
2022/03/30 12:35:18;;;;;;;13.30;4.75;;;;;;;;;;5079584;28;20028;-75
2022/03/30 12:37:45;;;;;;;19.55;5.45;;;;;;;;;;5081304;28;20060;-75
2022/03/30 12:40:12;;;;;;;19.98;8.77;;;;;;;;;;5079787;28;20088;-74
2022/03/30 12:42:38;;;;;;;60.33;35.47;;;;;;;;;;5079022;28;20020;-75
2022/03/30 12:45:08;;;;;;;33.78;16.27;;;;;;;;;;5078647;28;20031;-76
2022/03/30 12:47:35;;;;;;;193.90;71.75;;;;;;;;;;5082188;28;20020;-75
2022/03/30 12:50:09;;;;;;;63.58;22.65;;;;;;;;;;5079321;28;20139;-76
2022/03/30 12:52:35;;;;;;;20.05;8.20;;;;;;;;;;5080522;28;20089;-75
2022/03/30 12:55:11;;;;;;;26.42;6.28;;;;;;;;;;5081490;28;20044;-77
2022/03/30 12:57:36;;;;;;;38.95;20.27;;;;;;;;;;5078756;28;20035;-76
2022/03/30 13:00:18;;;;;;;39.20;13.60;;;;;;;;;;5078990;28;20028;-75
2022/03/30 13:02:43;;;;;;;41.58;23.42;;;;;;;;;;5076077;28;20028;-77
2022/03/30 13:05:08;;;;;;;20.15;9.07;;;;;;;;;;5069763;28;20105;-76
2022/03/30 13:07:47;;;;;;;16.38;7.00;;;;;;;;;;5067366;28;20631;-76
2022/03/30 13:10:13;;;;;;;18.40;5.22;;;;;;;;;;5079066;28;20023;-77
2022/03/30 13:12:40;;;;;;;18.23;6.53;;;;;;;;;;5079171;28;20031;-75
2022/03/30 13:15:10;;;;;;;21.85;6.05;;;;;;;;;;5078459;28;20410;-76
2022/03/30 13:17:52;;;;;;;21.30;7.95;;;;;;;;;;5077855;28;20077;-74
2022/03/30 13:20:17;;;;;;;17.77;6.15;;;;;;;;;;5072953;28;20085;-76
2022/03/30 13:22:50;;;;;;;20.00;6.78;;;;;;;;;;5073514;28;20028;-77
2022/03/30 13:25:25;;;;;;;15.77;6.85;;;;;;;;;;5066304;28;20020;-76
2022/03/30 13:27:51;;;;;;;21.33;6.93;;;;;;;;;;5065251;28;20032;-75
2022/03/30 13:30:16;;;;;;;23.52;10.00;;;;;;;;;;5065299;28;20047;-76
2022/03/30 13:32:41;;;;;;;22.48;10.80;;;;;;;;;;5075765;28;20047;-75
2022/03/30 13:35:08;;;;;;;28.90;9.48;;;;;;;;;;5081037;28;20517;-75
2022/03/30 13:37:33;;;;;;;23.13;7.18;;;;;;;;;;5077830;28;20331;-77
2022/03/30 13:39:59;;;;;;;29.40;11.32;;;;;;;;;;5077503;28;20016;-76
2022/03/30 13:42:25;;;;;;;59.05;23.50;;;;;;;;;;5078852;28;20026;-76
2022/03/30 13:44:50;;;;;;;60.55;29.70;;;;;;;;;;5068129;28;20250;-77
2022/03/30 13:47:15;;;;;;;31.80;11.95;;;;;;;;;;5080189;28;20466;-76
2022/03/30 13:49:41;;;;;;;47.10;21.80;;;;;;;;;;5069975;28;20402;-75
2022/03/30 13:52:07;;;;;;;30.25;10.30;;;;;;;;;;5064797;28;20030;-75
2022/03/30 13:54:32;;;;;;;18.58;6.95;;;;;;;;;;5067406;28;20439;-76
2022/03/30 13:56:57;;;;;;;25.13;6.00;;;;;;;;;;5065112;28;20056;-76
2022/03/30 13:59:23;;;;;;;28.35;8.80;;;;;;;;;;5065414;28;20410;-78
2022/03/30 14:01:49;;;;;;;22.63;9.15;;;;;;;;;;5064841;28;20103;-76
2022/03/30 14:04:15;;;;;;;25.27;9.02;;;;;;;;;;5065271;28;20046;-76
2022/03/30 14:06:40;;;;;;;21.95;9.52;;;;;;;;;;5077367;28;20036;-74
2022/03/30 14:09:06;;;;;;;37.05;13.73;;;;;;;;;;5072678;28;20032;-74
2022/03/30 14:11:31;;;;;;;24.60;12.25;;;;;;;;;;5072783;28;20107;-76
2022/03/30 14:13:57;;;;;;;27.10;12.07;;;;;;;;;;5078110;28;20028;-79
2022/03/30 14:16:22;;;;;;;21.70;11.60;;;;;;;;;;5077680;28;20111;-78
2022/03/30 14:18:47;;;;;;;41.72;19.27;;;;;;;;;;5077847;28;20354;-77
2022/03/30 14:21:13;;;;;;;36.92;18.75;;;;;;;;;;5076839;28;20031;-75
2022/03/30 14:23:40;;;;;;;27.77;12.68;;;;;;;;;;5078312;28;20020;-77
2022/03/30 14:26:05;;;;;;;24.95;8.00;;;;;;;;;;5075458;28;20051;-77
2022/03/30 14:28:31;;;;;;;30.67;10.02;;;;;;;;;;5076579;28;20473;-76